createdAt,value
2023-10-10T00:00:49.027Z,97.00
2023-10-10T00:01:49.123Z,97.10
2023-10-10T00:02:49.027Z,97.10
2023-10-10T00:03:49.057Z,97.20
2023-10-10T00:04:49.022Z,97.30
2023-10-10T00:05:49.026Z,97.30
2023-10-10T00:06:49.057Z,97.30
2023-10-10T00:07:49.026Z,97.40
2023-10-10T00:08:48.953Z,97.40
2023-10-10T00:09:48.934Z,97.40
2023-10-10T00:10:48.924Z,97.40
2023-10-10T00:11:48.943Z,97.40
2023-10-10T00:12:49.047Z,97.45
2023-10-10T00:13:48.897Z,97.45
2023-10-10T00:14:48.873Z,97.45
2023-10-10T00:15:48.901Z,97.55
2023-10-10T00:16:48.942Z,97.55
2023-10-10T00:17:48.941Z,97.65
2023-10-10T00:18:48.842Z,97.65
2023-10-10T00:19:48.907Z,97.55
2023-10-10T00:20:48.895Z,97.45
2023-10-10T00:21:48.834Z,97.34
2023-10-10T00:22:48.920Z,97.25
2023-10-10T00:23:48.849Z,97.25
2023-10-10T00:24:48.766Z,97.14
2023-10-10T00:25:48.824Z,97.14
2023-10-10T00:26:48.770Z,97.05
2023-10-10T00:27:48.744Z,96.94
2023-10-10T00:28:48.858Z,96.98
2023-10-10T00:29:48.706Z,96.89
2023-10-10T00:30:48.759Z,96.78
2023-10-10T00:31:48.786Z,96.78
2023-10-10T00:32:48.718Z,96.89
2023-10-10T00:33:48.685Z,96.89
2023-10-10T00:34:48.774Z,97.03
2023-10-10T00:35:48.663Z,97.14
2023-10-10T00:36:48.692Z,97.24
2023-10-10T00:37:48.768Z,97.34
2023-10-10T00:38:48.618Z,97.44
2023-10-10T00:39:48.602Z,97.54
2023-10-10T00:40:48.615Z,97.64
2023-10-10T00:41:48.587Z,97.64
2023-10-10T00:42:48.587Z,97.69
2023-10-10T00:43:48.717Z,97.79
2023-10-10T00:44:48.542Z,97.79
2023-10-10T00:45:48.617Z,97.89
2023-10-10T00:46:48.586Z,97.99
2023-10-10T00:47:48.690Z,98.09
2023-10-10T00:48:48.597Z,98.09
2023-10-10T00:49:48.491Z,98.19
2023-10-10T00:50:48.512Z,98.29
2023-10-10T00:51:48.583Z,98.29
2023-10-10T00:52:48.570Z,98.39
2023-10-10T00:53:48.454Z,98.39
2023-10-10T00:54:48.476Z,98.50
2023-10-10T00:55:48.434Z,98.50
2023-10-10T00:56:48.413Z,98.50
2023-10-10T00:57:48.560Z,98.50
2023-10-10T00:58:48.415Z,98.50
2023-10-10T00:59:48.434Z,98.50
2023-10-10T01:00:48.433Z,98.54
2023-10-10T01:01:48.371Z,98.54
2023-10-10T01:02:48.630Z,98.54
2023-10-10T01:03:48.547Z,98.65
2023-10-10T01:04:48.347Z,98.65
2023-10-10T01:05:48.328Z,98.74
2023-10-10T01:06:48.310Z,98.74
2023-10-10T01:07:48.331Z,98.85
2023-10-10T01:08:48.389Z,98.85
2023-10-10T01:09:48.295Z,98.85
2023-10-10T01:10:48.298Z,98.95
2023-10-10T01:11:48.266Z,98.90
2023-10-10T01:12:48.254Z,98.90
2023-10-10T01:13:48.284Z,98.90
2023-10-10T01:14:48.338Z,98.90
2023-10-10T01:15:48.221Z,98.80
2023-10-10T01:16:48.270Z,98.90
2023-10-10T01:17:48.304Z,98.90
2023-10-10T01:18:48.242Z,98.80
2023-10-10T01:19:48.254Z,98.80
2023-10-10T01:20:48.172Z,98.80
2023-10-10T01:21:48.166Z,98.80
2023-10-10T01:22:48.187Z,98.80
2023-10-10T01:23:48.147Z,98.70
2023-10-10T01:24:48.119Z,98.60
2023-10-10T01:25:48.322Z,98.60
2023-10-10T01:26:48.108Z,98.60
2023-10-10T01:27:48.130Z,98.50
2023-10-10T01:28:48.122Z,98.50
2023-10-10T01:29:48.154Z,98.50
2023-10-10T01:30:48.068Z,98.44
2023-10-10T01:31:48.055Z,98.44
2023-10-10T01:32:48.155Z,98.34
2023-10-10T01:33:48.028Z,98.24
2023-10-10T01:34:48.096Z,98.24
2023-10-10T01:35:48.005Z,98.24
2023-10-10T01:36:48.067Z,98.14
2023-10-10T01:37:47.999Z,98.14
2023-10-10T01:38:48.029Z,98.03
2023-10-10T01:39:47.975Z,98.14
2023-10-10T01:40:47.952Z,98.14
2023-10-10T01:41:48.102Z,98.24
2023-10-10T01:42:47.924Z,98.24
2023-10-10T01:43:47.920Z,98.24
2023-10-10T01:44:48.037Z,98.24
2023-10-10T01:45:47.916Z,98.24
2023-10-10T01:46:47.994Z,98.34
2023-10-10T01:47:47.999Z,98.24
2023-10-10T01:48:47.932Z,98.34
2023-10-10T01:49:47.861Z,98.34
2023-10-10T01:50:47.956Z,98.24
2023-10-10T01:51:47.943Z,98.24
2023-10-10T01:52:47.983Z,98.24
2023-10-10T01:53:47.929Z,98.24
2023-10-10T01:54:47.824Z,98.14
2023-10-10T01:55:47.910Z,97.94
2023-10-10T01:56:47.796Z,97.98
2023-10-10T01:57:47.783Z,97.88
2023-10-10T01:58:47.775Z,97.88
2023-10-10T01:59:47.821Z,97.88
2023-10-10T02:00:47.757Z,97.98
2023-10-10T02:01:47.883Z,97.98
2023-10-10T02:02:47.834Z,98.13
2023-10-10T02:03:47.999Z,98.23
2023-10-10T02:04:47.682Z,98.23
2023-10-10T02:05:47.689Z,98.33
2023-10-10T02:06:47.685Z,98.43
2023-10-10T02:07:47.767Z,98.43
2023-10-10T02:08:47.660Z,98.54
2023-10-10T02:09:47.752Z,98.54
2023-10-10T02:10:47.656Z,98.63
2023-10-10T02:11:47.637Z,98.63
2023-10-10T02:12:47.603Z,98.63
2023-10-10T02:13:47.646Z,98.74
2023-10-10T02:14:47.565Z,98.74
2023-10-10T02:15:47.585Z,98.74
2023-10-10T02:16:47.590Z,98.74
2023-10-10T02:17:47.623Z,98.63
2023-10-10T02:18:47.548Z,98.63
2023-10-10T02:19:47.614Z,98.63
2023-10-10T02:20:47.509Z,98.63
2023-10-10T02:21:47.499Z,98.63
2023-10-10T02:22:47.487Z,98.79
2023-10-10T02:23:47.489Z,98.79
2023-10-10T02:24:47.592Z,98.79
2023-10-10T02:25:47.497Z,98.88
2023-10-10T02:26:47.439Z,98.99
2023-10-10T02:27:47.439Z,98.99
2023-10-10T02:28:47.488Z,98.99
2023-10-10T02:29:47.417Z,98.99
2023-10-10T02:30:47.474Z,99.08
2023-10-10T02:31:47.404Z,99.08
2023-10-10T02:32:47.490Z,99.08
2023-10-10T02:33:47.410Z,99.08
2023-10-10T02:34:47.357Z,99.08
2023-10-10T02:35:47.354Z,99.13
2023-10-10T02:36:47.408Z,99.13
2023-10-10T02:37:47.395Z,99.13
2023-10-10T02:38:47.548Z,99.13
2023-10-10T02:39:47.318Z,99.13
2023-10-10T02:40:47.292Z,99.13
2023-10-10T02:41:47.284Z,99.24
2023-10-10T02:42:47.385Z,99.24
2023-10-10T02:43:47.527Z,99.33
2023-10-10T02:44:47.342Z,99.33
2023-10-10T02:45:47.244Z,99.39
2023-10-10T02:46:55.976Z,99.39
2023-10-10T02:47:47.427Z,99.39
2023-10-10T02:48:47.243Z,99.39
2023-10-10T02:49:47.202Z,99.39
2023-10-10T02:50:47.257Z,99.39
2023-10-10T02:51:47.179Z,99.39
2023-10-10T02:52:47.316Z,99.39
2023-10-10T02:53:47.214Z,99.39
2023-10-10T02:54:47.140Z,99.39
2023-10-10T02:55:47.141Z,99.29
2023-10-10T02:56:47.184Z,99.29
2023-10-10T02:57:47.117Z,99.29
2023-10-10T02:58:47.106Z,99.29
2023-10-10T02:59:47.141Z,99.29
2023-10-10T03:00:47.079Z,99.19
2023-10-10T03:01:47.103Z,99.08
2023-10-10T03:02:47.317Z,99.08
2023-10-10T03:03:47.134Z,99.08
2023-10-10T03:04:47.091Z,99.08
2023-10-10T03:05:47.065Z,98.99
2023-10-10T03:06:47.012Z,98.99
2023-10-10T03:07:47.001Z,99.08
2023-10-10T03:08:47.049Z,98.99
2023-10-10T03:09:46.981Z,99.08
2023-10-10T03:10:47.018Z,98.99
2023-10-10T03:11:46.959Z,98.99
2023-10-10T03:12:46.947Z,99.08
2023-10-10T03:13:46.947Z,99.08
2023-10-10T03:14:46.926Z,99.08
2023-10-10T03:15:46.996Z,99.08
2023-10-10T03:16:46.972Z,98.94
2023-10-10T03:17:46.985Z,98.94
2023-10-10T03:18:46.941Z,98.84
2023-10-10T03:19:46.868Z,98.74
2023-10-10T03:20:46.926Z,98.58
2023-10-10T03:21:46.868Z,98.48
2023-10-10T03:22:46.920Z,98.48
2023-10-10T03:23:46.825Z,98.38
2023-10-10T03:24:46.830Z,98.18
2023-10-10T03:25:46.879Z,98.07
2023-10-10T03:26:46.822Z,97.97
2023-10-10T03:27:46.800Z,97.77
2023-10-10T03:28:46.818Z,97.67
2023-10-10T03:29:46.764Z,97.67
2023-10-10T03:30:46.757Z,97.56
2023-10-10T03:31:46.852Z,97.47
2023-10-10T03:32:46.999Z,97.36
2023-10-10T03:33:46.718Z,97.26
2023-10-10T03:34:46.721Z,97.26
2023-10-10T03:35:46.694Z,97.16
2023-10-10T03:36:46.699Z,96.96
2023-10-10T03:37:46.735Z,96.86
2023-10-10T03:38:46.684Z,96.86
2023-10-10T03:39:46.650Z,96.86
2023-10-10T03:40:46.690Z,96.86
2023-10-10T03:41:46.704Z,96.86
2023-10-10T03:42:46.693Z,96.86
2023-10-10T03:43:46.616Z,96.86
2023-10-10T03:44:46.620Z,96.86
2023-10-10T03:45:46.737Z,96.86
2023-10-10T03:46:46.631Z,96.86
2023-10-10T03:47:46.631Z,96.96
2023-10-10T03:48:46.559Z,96.96
2023-10-10T03:49:46.540Z,97.06
2023-10-10T03:50:46.750Z,96.96
2023-10-10T03:51:46.551Z,97.06
2023-10-10T03:52:46.537Z,96.96
2023-10-10T03:53:46.511Z,96.96
2023-10-10T03:54:46.583Z,96.96
2023-10-10T03:55:46.481Z,96.96
2023-10-10T03:56:46.481Z,96.96
2023-10-10T03:57:46.474Z,96.96
2023-10-10T03:58:46.476Z,96.96
2023-10-10T03:59:46.662Z,97.06
2023-10-10T04:00:46.440Z,97.16
2023-10-10T04:01:46.446Z,97.16
2023-10-10T04:02:46.523Z,97.16
2023-10-10T04:03:46.464Z,97.26
2023-10-10T04:04:46.484Z,97.26
2023-10-10T04:05:46.392Z,97.22
2023-10-10T04:06:46.368Z,97.26
2023-10-10T04:07:46.374Z,97.36
2023-10-10T04:08:46.350Z,97.32
2023-10-10T04:09:46.397Z,97.22
2023-10-10T04:10:46.404Z,97.22
2023-10-10T04:11:46.321Z,97.22
2023-10-10T04:12:46.318Z,97.22
2023-10-10T04:13:46.289Z,97.22
2023-10-10T04:14:46.468Z,97.11
2023-10-10T04:15:46.276Z,97.11
2023-10-10T04:16:46.302Z,97.22
2023-10-10T04:17:46.448Z,97.22
2023-10-10T04:18:46.245Z,97.22
2023-10-10T04:19:46.232Z,97.22
2023-10-10T04:20:46.221Z,97.32
2023-10-10T04:21:46.301Z,97.32
2023-10-10T04:22:46.197Z,97.42
2023-10-10T04:23:46.180Z,97.42
2023-10-10T04:24:46.181Z,97.52
2023-10-10T04:25:46.177Z,97.52
2023-10-10T04:26:46.153Z,97.62
2023-10-10T04:27:46.265Z,97.62
2023-10-10T04:28:46.260Z,97.62
2023-10-10T04:29:46.139Z,97.67
2023-10-10T04:30:46.151Z,97.72
2023-10-10T04:31:46.127Z,97.78
2023-10-10T04:32:46.293Z,97.78
2023-10-10T04:33:46.166Z,97.78
2023-10-10T04:34:46.166Z,97.78
2023-10-10T04:35:46.103Z,97.78
2023-10-10T04:36:46.045Z,97.78
2023-10-10T04:37:46.055Z,97.78
2023-10-10T04:38:46.085Z,97.78
2023-10-10T04:39:46.010Z,97.78
2023-10-10T04:40:46.012Z,97.88
2023-10-10T04:41:46.019Z,97.88
2023-10-10T04:42:45.984Z,97.88
2023-10-10T04:43:46.099Z,97.98
2023-10-10T04:44:45.994Z,97.98
2023-10-10T04:45:45.982Z,98.08
2023-10-10T04:46:45.944Z,98.08
2023-10-10T04:47:46.097Z,98.08
2023-10-10T04:48:46.001Z,98.18
2023-10-10T04:49:45.907Z,98.18
2023-10-10T04:50:45.965Z,98.08
2023-10-10T04:51:45.902Z,98.08
2023-10-10T04:52:45.877Z,98.08
2023-10-10T04:53:45.872Z,98.08
2023-10-10T04:54:45.950Z,98.08
2023-10-10T04:55:45.868Z,98.08
2023-10-10T04:56:45.868Z,98.08
2023-10-10T04:57:45.825Z,98.08
2023-10-10T04:58:45.875Z,98.08
2023-10-10T04:59:45.797Z,98.08
2023-10-10T05:00:45.790Z,98.08
2023-10-10T05:01:45.831Z,98.18
2023-10-10T05:02:45.868Z,98.18
2023-10-10T05:03:45.949Z,98.28
2023-10-10T05:04:45.806Z,98.39
2023-10-10T05:05:45.764Z,98.39
2023-10-10T05:06:45.729Z,98.49
2023-10-10T05:07:45.721Z,98.59
2023-10-10T05:08:45.752Z,98.59
2023-10-10T05:09:45.728Z,98.69
2023-10-10T05:10:45.707Z,98.79
2023-10-10T05:11:45.723Z,98.79
2023-10-10T05:12:45.652Z,98.79
2023-10-10T05:13:45.661Z,98.90
2023-10-10T05:14:45.650Z,98.90
2023-10-10T05:15:45.710Z,98.99
2023-10-10T05:16:45.627Z,98.99
2023-10-10T05:17:45.659Z,98.99
2023-10-10T05:18:46.745Z,98.99
2023-10-10T05:19:45.639Z,98.99
2023-10-10T05:20:45.591Z,98.99
2023-10-10T05:21:45.566Z,98.99
2023-10-10T05:22:45.581Z,98.99
2023-10-10T05:23:45.555Z,98.99
2023-10-10T05:24:45.538Z,99.10
2023-10-10T05:25:45.573Z,99.10
2023-10-10T05:26:45.508Z,98.99
2023-10-10T05:27:45.581Z,98.99
2023-10-10T05:28:45.494Z,98.99
2023-10-10T05:29:45.536Z,98.99
2023-10-10T05:30:45.533Z,99.10
2023-10-10T05:31:45.523Z,98.99
2023-10-10T05:32:45.545Z,98.99
2023-10-10T05:33:45.503Z,98.99
2023-10-10T05:34:45.479Z,98.99
2023-10-10T05:35:45.618Z,98.99
2023-10-10T05:36:45.502Z,98.99
2023-10-10T05:37:45.387Z,98.99
2023-10-10T05:38:45.418Z,99.10
2023-10-10T05:39:45.369Z,99.10
2023-10-10T05:40:45.378Z,99.10
2023-10-10T05:41:45.506Z,99.19
2023-10-10T05:42:45.342Z,99.19
2023-10-10T05:43:45.315Z,99.19
2023-10-10T05:44:45.406Z,99.19
2023-10-10T05:45:45.458Z,99.19
2023-10-10T05:46:45.367Z,99.19
2023-10-10T05:47:45.378Z,99.10
2023-10-10T05:48:45.544Z,99.10
2023-10-10T05:49:45.562Z,99.10
2023-10-10T05:50:45.430Z,99.10
2023-10-10T05:51:45.398Z,98.99
2023-10-10T05:52:45.497Z,98.99
2023-10-10T05:53:45.424Z,98.99
2023-10-10T05:54:45.440Z,98.99
2023-10-10T05:55:45.417Z,98.90
2023-10-10T05:56:45.283Z,98.90
2023-10-10T05:57:45.324Z,98.90
2023-10-10T05:58:45.907Z,98.79
2023-10-10T05:59:45.289Z,98.79
2023-10-10T06:00:45.154Z,98.79
2023-10-10T06:01:45.160Z,98.79
2023-10-10T06:02:45.237Z,98.79
2023-10-10T06:03:45.201Z,98.79
2023-10-10T06:04:45.271Z,98.79
2023-10-10T06:05:45.162Z,98.90
2023-10-10T06:06:45.082Z,98.99
2023-10-10T06:07:45.189Z,98.99
2023-10-10T06:08:45.140Z,98.99
2023-10-10T06:09:45.049Z,98.99
2023-10-10T06:10:45.050Z,98.99
2023-10-10T06:11:45.054Z,98.90
2023-10-10T06:12:45.012Z,98.79
2023-10-10T06:13:45.567Z,98.79
2023-10-10T06:14:45.141Z,98.90
2023-10-10T06:15:45.005Z,98.90
2023-10-10T06:16:45.182Z,98.90
2023-10-10T06:17:45.031Z,98.95
2023-10-10T06:18:45.010Z,99.15
2023-10-10T06:19:44.934Z,99.15
2023-10-10T06:20:58.678Z,99.15
2023-10-10T06:21:46.015Z,99.15
2023-10-10T06:22:44.909Z,99.05
2023-10-10T06:23:45.057Z,99.05
2023-10-10T06:24:44.893Z,99.05
2023-10-10T06:25:44.882Z,99.05
2023-10-10T06:26:51.570Z,99.05
2023-10-10T06:27:44.935Z,98.95
2023-10-10T06:28:44.853Z,98.95
2023-10-10T06:29:44.870Z,98.95
2023-10-10T06:30:44.846Z,98.85
2023-10-10T06:31:44.941Z,98.85
2023-10-10T06:32:45.002Z,98.74
2023-10-10T06:33:44.912Z,98.74
2023-10-10T06:34:44.832Z,98.65
2023-10-10T06:35:44.786Z,98.65
2023-10-10T06:36:44.782Z,98.65
2023-10-10T06:37:44.853Z,98.54
2023-10-10T06:38:44.798Z,98.54
2023-10-10T06:39:44.734Z,98.54
2023-10-10T06:40:44.729Z,98.54
2023-10-10T06:41:44.733Z,98.44
2023-10-10T06:42:44.695Z,98.44
2023-10-10T06:43:44.783Z,98.44
2023-10-10T06:44:44.739Z,98.44
2023-10-10T06:45:44.679Z,98.44
2023-10-10T06:46:44.666Z,98.44
2023-10-10T06:47:44.701Z,98.44
2023-10-10T06:48:44.627Z,98.34
2023-10-10T06:49:44.980Z,98.34
2023-10-10T06:50:44.664Z,98.44
2023-10-10T06:51:44.639Z,98.44
2023-10-10T06:52:44.591Z,98.44
2023-10-10T06:53:44.678Z,98.44
2023-10-10T06:54:44.585Z,98.44
2023-10-10T06:55:44.620Z,98.54
2023-10-10T06:56:44.598Z,98.44
2023-10-10T06:57:45.736Z,98.44
2023-10-10T06:58:44.536Z,98.44
2023-10-10T06:59:44.544Z,98.34
2023-10-10T07:00:44.582Z,98.34
2023-10-10T07:01:44.489Z,98.34
2023-10-10T07:02:44.589Z,98.24
2023-10-10T07:03:44.564Z,98.24
2023-10-10T07:04:44.588Z,98.24
2023-10-10T07:05:44.529Z,98.34
2023-10-10T07:06:44.440Z,98.34
2023-10-10T07:07:44.481Z,98.34
2023-10-10T07:08:44.449Z,98.34
2023-10-10T07:09:44.405Z,98.34
2023-10-10T07:10:44.714Z,98.34
2023-10-10T07:11:44.444Z,98.34
2023-10-10T07:12:44.381Z,98.34
2023-10-10T07:13:44.366Z,98.34
2023-10-10T07:14:44.423Z,98.34
2023-10-10T07:15:44.460Z,98.34
2023-10-10T07:16:44.650Z,98.34
2023-10-10T07:17:44.432Z,98.34
2023-10-10T07:18:44.708Z,98.34
2023-10-10T07:19:44.304Z,98.34
2023-10-10T07:20:44.324Z,98.34
2023-10-10T07:21:44.388Z,98.34
2023-10-10T07:22:44.320Z,98.34
2023-10-10T07:23:44.310Z,98.34
2023-10-10T07:24:44.245Z,98.34
2023-10-10T07:25:44.236Z,98.34
2023-10-10T07:26:44.387Z,98.34
2023-10-10T07:27:44.313Z,98.29
2023-10-10T07:28:44.205Z,98.34
2023-10-10T07:29:44.247Z,98.29
2023-10-10T07:30:44.189Z,98.39
2023-10-10T07:31:44.175Z,98.39
2023-10-10T07:32:44.424Z,98.39
2023-10-10T07:33:44.176Z,98.39
2023-10-10T07:34:44.144Z,98.39
2023-10-10T07:35:44.224Z,98.39
2023-10-10T07:36:44.113Z,98.39
2023-10-10T07:37:44.136Z,98.39
2023-10-10T07:38:44.125Z,98.39
2023-10-10T07:39:44.084Z,98.39
2023-10-10T07:40:44.095Z,98.39
2023-10-10T07:41:44.151Z,98.25
2023-10-10T07:42:44.056Z,98.25
2023-10-10T07:43:44.054Z,98.25
2023-10-10T07:44:44.064Z,98.25
2023-10-10T07:45:44.034Z,98.14
2023-10-10T07:46:44.121Z,98.05
2023-10-10T07:47:44.178Z,98.05
2023-10-10T07:48:43.983Z,97.94
2023-10-10T07:49:44.018Z,97.94
2023-10-10T07:50:44.013Z,97.80
2023-10-10T07:51:43.950Z,97.69
2023-10-10T07:52:43.988Z,97.60
2023-10-10T07:53:44.128Z,97.49
2023-10-10T07:54:43.933Z,97.49
2023-10-10T07:55:43.924Z,97.29
2023-10-10T07:56:44.051Z,97.09
2023-10-10T07:57:43.942Z,96.89
2023-10-10T07:58:52.667Z,96.69
2023-10-10T07:59:44.915Z,96.54
2023-10-10T08:00:43.948Z,96.34
2023-10-10T08:01:43.861Z,96.13
2023-10-10T08:02:43.900Z,95.93
2023-10-10T08:03:43.950Z,95.93
2023-10-10T08:04:43.814Z,95.83
2023-10-10T08:05:43.848Z,95.83
2023-10-10T08:06:43.801Z,95.73
2023-10-10T08:07:43.814Z,95.43
2023-10-10T08:08:43.843Z,95.22
2023-10-10T08:09:43.816Z,95.07
2023-10-10T08:10:43.756Z,94.87
2023-10-10T08:11:43.788Z,94.78
2023-10-10T08:12:44.010Z,94.57
2023-10-10T08:13:43.744Z,94.37
2023-10-10T08:14:43.992Z,94.07
2023-10-10T08:15:43.726Z,93.66
2023-10-10T08:16:43.695Z,93.36
2023-10-10T08:17:43.755Z,93.16
2023-10-10T08:18:43.714Z,92.50
2023-10-10T08:19:43.772Z,92.21
2023-10-10T08:20:43.836Z,92.21
2023-10-10T08:21:43.634Z,92.21
2023-10-10T08:22:43.662Z,92.21
2023-10-10T08:23:43.651Z,92.10
2023-10-10T08:24:43.606Z,91.80
2023-10-10T08:25:43.854Z,91.80
2023-10-10T08:26:43.706Z,91.86
2023-10-10T08:27:44.680Z,91.86
2023-10-10T08:28:43.563Z,91.76
2023-10-10T08:29:43.594Z,91.55
2023-10-10T08:30:43.598Z,91.46
2023-10-10T08:31:43.535Z,91.35
2023-10-10T08:32:43.593Z,91.21
2023-10-10T08:33:43.514Z,91.01
2023-10-10T08:34:43.494Z,91.01
2023-10-10T08:35:43.585Z,90.91
2023-10-10T08:36:43.469Z,90.91
2023-10-10T08:37:43.565Z,90.81
2023-10-10T08:38:43.525Z,90.30
2023-10-10T08:39:43.464Z,90.00
2023-10-10T08:40:43.433Z,89.90
2023-10-10T08:41:43.664Z,89.39
2023-10-10T08:42:43.398Z,89.29
2023-10-10T08:43:43.461Z,89.29
2023-10-10T08:44:43.454Z,89.19
2023-10-10T08:45:43.418Z,88.79
2023-10-10T08:46:43.375Z,88.39
2023-10-10T08:47:44.303Z,88.34
2023-10-10T08:48:43.408Z,88.34
2023-10-10T08:49:43.377Z,88.34
2023-10-10T08:50:43.357Z,88.24
2023-10-10T08:51:43.379Z,88.24
2023-10-10T08:52:43.307Z,88.14
2023-10-10T08:53:43.408Z,88.04
2023-10-10T08:54:44.841Z,87.74
2023-10-10T08:55:43.280Z,87.63
2023-10-10T08:56:43.355Z,87.54
2023-10-10T08:57:43.346Z,87.49
2023-10-10T08:58:43.258Z,87.19
2023-10-10T08:59:43.382Z,86.99
2023-10-10T09:00:44.638Z,87.09
2023-10-10T09:01:43.228Z,87.09
2023-10-10T09:02:43.297Z,86.58
2023-10-10T09:03:43.345Z,85.94
2023-10-10T09:04:43.179Z,84.53
2023-10-10T09:05:43.226Z,83.72
2023-10-10T09:06:43.258Z,83.32
2023-10-10T09:07:43.219Z,82.18
2023-10-10T09:08:43.187Z,81.27
2023-10-10T09:09:43.154Z,80.97
2023-10-10T09:10:43.116Z,80.97
2023-10-10T09:11:43.155Z,80.16
2023-10-10T09:12:43.162Z,80.26
2023-10-10T09:13:43.125Z,80.43
2023-10-10T09:14:43.153Z,80.43
2023-10-10T09:15:43.059Z,80.63
2023-10-10T09:16:43.409Z,80.63
2023-10-10T09:17:43.201Z,79.82
2023-10-10T09:18:43.141Z,78.61
2023-10-10T09:19:43.008Z,78.71
2023-10-10T09:20:43.032Z,78.71
2023-10-10T09:21:42.999Z,78.67
2023-10-10T09:22:43.070Z,77.87
2023-10-10T09:23:43.007Z,77.87
2023-10-10T09:24:43.020Z,78.27
2023-10-10T09:25:43.137Z,78.38
2023-10-10T09:26:42.986Z,76.97
2023-10-10T09:27:42.929Z,77.17
2023-10-10T09:28:42.939Z,76.87
2023-10-10T09:29:42.978Z,76.67
2023-10-10T09:30:42.946Z,76.87
2023-10-10T09:31:42.884Z,76.73
2023-10-10T09:32:42.950Z,75.92
2023-10-10T09:33:42.964Z,73.00
2023-10-10T09:34:43.082Z,72.91
2023-10-10T09:35:42.870Z,73.00
2023-10-10T09:36:42.897Z,72.10
2023-10-10T09:37:42.912Z,71.90
2023-10-10T09:38:42.837Z,72.00
2023-10-10T09:39:42.820Z,72.71
2023-10-10T09:40:42.807Z,73.31
2023-10-10T09:41:42.815Z,73.71
2023-10-10T09:42:42.823Z,73.91
2023-10-10T09:43:42.767Z,73.41
2023-10-10T09:44:42.845Z,73.31
2023-10-10T09:45:42.827Z,72.71
2023-10-10T09:46:42.766Z,72.30
2023-10-10T09:47:42.828Z,72.00
2023-10-10T09:48:42.778Z,72.00
2023-10-10T09:49:42.727Z,71.80
2023-10-10T09:50:42.728Z,72.10
2023-10-10T09:51:42.738Z,71.40
2023-10-10T09:52:42.662Z,71.90
2023-10-10T09:53:42.765Z,71.87
2023-10-10T09:54:42.637Z,71.56
2023-10-10T09:55:42.684Z,71.56
2023-10-10T09:56:42.641Z,70.86
2023-10-10T09:57:42.609Z,70.96
2023-10-10T09:58:42.601Z,70.66
2023-10-10T09:59:42.621Z,70.66
2023-10-10T10:00:42.571Z,70.76
2023-10-10T10:01:42.769Z,69.85
2023-10-10T10:02:42.615Z,70.16
2023-10-10T10:03:42.753Z,70.56
2023-10-10T10:04:42.651Z,70.56
2023-10-10T10:05:42.555Z,70.36
2023-10-10T10:06:52.391Z,70.56
2023-10-10T10:07:43.506Z,69.96
2023-10-10T10:08:45.227Z,70.66
2023-10-10T10:09:42.610Z,70.26
2023-10-10T10:10:42.485Z,69.45
2023-10-10T10:11:42.483Z,69.32
2023-10-10T10:12:42.484Z,69.32
2023-10-10T10:13:42.479Z,69.72
2023-10-10T10:14:42.456Z,68.92
2023-10-10T10:15:42.453Z,69.22
2023-10-10T10:16:42.493Z,69.42
2023-10-10T10:17:42.530Z,69.52
2023-10-10T10:18:42.430Z,69.32
2023-10-10T10:19:42.377Z,69.02
2023-10-10T10:20:42.407Z,68.82
2023-10-10T10:21:42.480Z,68.52
2023-10-10T10:22:42.360Z,68.62
2023-10-10T10:23:42.394Z,68.82
2023-10-10T10:24:42.383Z,68.92
2023-10-10T10:25:42.323Z,68.79
2023-10-10T10:26:42.402Z,68.41
2023-10-10T10:27:42.318Z,68.59
2023-10-10T10:28:42.328Z,69.19
2023-10-10T10:29:42.316Z,69.19
2023-10-10T10:30:42.254Z,69.19
2023-10-10T10:31:42.349Z,69.49
2023-10-10T10:32:42.366Z,69.79
2023-10-10T10:33:42.313Z,69.09
2023-10-10T10:34:42.234Z,68.99
2023-10-10T10:35:42.293Z,68.99
2023-10-10T10:36:42.314Z,68.99
2023-10-10T10:37:42.260Z,68.79
2023-10-10T10:38:42.217Z,68.29
2023-10-10T10:39:42.165Z,67.28
2023-10-10T10:40:42.214Z,67.18
2023-10-10T10:41:42.212Z,67.68
2023-10-10T10:42:42.169Z,67.58
2023-10-10T10:43:42.245Z,67.58
2023-10-10T10:44:42.172Z,67.48
2023-10-10T10:45:42.134Z,67.68
2023-10-10T10:46:42.155Z,67.68
2023-10-10T10:47:42.284Z,68.05
2023-10-10T10:48:42.102Z,68.15
2023-10-10T10:49:42.060Z,68.45
2023-10-10T10:50:42.621Z,67.85
2023-10-10T10:51:42.253Z,67.65
2023-10-10T10:52:42.103Z,68.15
2023-10-10T10:53:42.050Z,68.35
2023-10-10T10:54:42.020Z,68.25
2023-10-10T10:55:41.993Z,68.35
2023-10-10T10:56:44.744Z,67.65
2023-10-10T10:57:50.153Z,67.85
2023-10-10T10:58:42.983Z,68.15
2023-10-10T10:59:42.143Z,67.95
2023-10-10T11:00:42.019Z,67.75
2023-10-10T11:01:42.030Z,68.15
2023-10-10T11:02:41.984Z,67.75
2023-10-10T11:03:42.142Z,67.95
2023-10-10T11:04:41.987Z,67.82
2023-10-10T11:05:41.937Z,67.52
2023-10-10T11:06:41.932Z,67.22
2023-10-10T11:07:41.919Z,67.22
2023-10-10T11:08:56.607Z,66.71
2023-10-10T11:09:42.854Z,67.02
2023-10-10T11:10:41.827Z,66.91
2023-10-10T11:11:42.199Z,66.91
2023-10-10T11:12:41.976Z,67.11
2023-10-10T11:13:41.791Z,66.71
2023-10-10T11:14:41.925Z,66.21
2023-10-10T11:15:41.767Z,66.61
2023-10-10T11:16:41.785Z,66.61
2023-10-10T11:17:41.970Z,66.78
2023-10-10T11:18:41.777Z,66.18
2023-10-10T11:19:41.771Z,66.28
2023-10-10T11:20:41.754Z,66.28
2023-10-10T11:21:41.950Z,65.68
2023-10-10T11:22:41.788Z,65.98
2023-10-10T11:23:41.831Z,65.88
2023-10-10T11:24:41.701Z,65.68
2023-10-10T11:25:41.684Z,65.55
2023-10-10T11:26:41.696Z,65.45
2023-10-10T11:27:41.642Z,65.55
2023-10-10T11:28:41.629Z,65.55
2023-10-10T11:29:41.723Z,65.75
2023-10-10T11:30:41.622Z,65.75
2023-10-10T11:31:41.671Z,65.55
2023-10-10T11:32:41.741Z,65.65
2023-10-10T11:33:41.650Z,66.05
2023-10-10T11:34:41.652Z,66.05
2023-10-10T11:35:41.716Z,65.45
2023-10-10T11:36:41.546Z,64.95
2023-10-10T11:37:41.550Z,65.25
2023-10-10T11:38:41.644Z,65.05
2023-10-10T11:39:41.507Z,65.15
2023-10-10T11:40:41.593Z,64.75
2023-10-10T11:41:44.830Z,64.72
2023-10-10T11:42:41.485Z,64.81
2023-10-10T11:43:41.474Z,65.01
2023-10-10T11:44:41.598Z,64.92
2023-10-10T11:45:42.651Z,64.81
2023-10-10T11:46:41.595Z,64.72
2023-10-10T11:47:41.494Z,64.22
2023-10-10T11:48:41.424Z,64.72
2023-10-10T11:49:41.445Z,64.81
2023-10-10T11:50:41.456Z,65.01
2023-10-10T11:51:41.586Z,64.39
2023-10-10T11:52:42.120Z,64.59
2023-10-10T11:53:41.406Z,64.59
2023-10-10T11:54:41.449Z,64.89
2023-10-10T11:55:44.698Z,64.69
2023-10-10T11:56:41.348Z,64.09
2023-10-10T11:57:41.448Z,64.28
2023-10-10T11:58:41.305Z,64.59
2023-10-10T11:59:41.418Z,64.28
2023-10-10T12:00:41.291Z,64.59
2023-10-10T12:01:44.521Z,64.98
2023-10-10T12:02:41.456Z,64.48
2023-10-10T12:03:42.147Z,64.48
2023-10-10T12:04:41.246Z,64.69
2023-10-10T12:05:41.286Z,64.89
2023-10-10T12:06:41.334Z,64.65
2023-10-10T12:07:41.283Z,65.16
2023-10-10T12:08:41.246Z,64.86
2023-10-10T12:09:41.186Z,63.95
2023-10-10T12:10:41.206Z,63.35
2023-10-10T12:11:41.324Z,63.45
2023-10-10T12:12:41.165Z,63.45
2023-10-10T12:13:41.204Z,63.85
2023-10-10T12:14:41.146Z,64.15
2023-10-10T12:15:41.125Z,64.36
2023-10-10T12:16:41.256Z,64.25
2023-10-10T12:17:41.185Z,64.15
2023-10-10T12:18:41.123Z,63.65
2023-10-10T12:19:41.079Z,63.95
2023-10-10T12:20:41.104Z,64.36
2023-10-10T12:21:41.141Z,64.55
2023-10-10T12:22:41.049Z,64.75
2023-10-10T12:23:41.166Z,63.72
2023-10-10T12:24:41.056Z,63.42
2023-10-10T12:25:41.090Z,63.12
2023-10-10T12:26:41.113Z,62.62
2023-10-10T12:27:41.003Z,62.82
2023-10-10T12:28:40.999Z,62.59
2023-10-10T12:29:41.367Z,62.70
2023-10-10T12:30:40.969Z,62.70
2023-10-10T12:31:41.100Z,62.89
2023-10-10T12:32:41.137Z,62.89
2023-10-10T12:33:40.982Z,62.89
2023-10-10T12:34:40.945Z,62.59
2023-10-10T12:35:41.027Z,62.09
2023-10-10T12:36:40.930Z,60.79
2023-10-10T12:37:40.964Z,61.49
2023-10-10T12:38:40.930Z,61.89
2023-10-10T12:39:40.901Z,62.39
2023-10-10T12:40:40.863Z,62.29
2023-10-10T12:41:40.902Z,62.37
2023-10-10T12:42:40.871Z,61.46
2023-10-10T12:43:40.958Z,61.87
2023-10-10T12:44:40.863Z,62.16
2023-10-10T12:45:40.852Z,61.66
2023-10-10T12:46:40.794Z,61.46
2023-10-10T12:47:41.060Z,61.46
2023-10-10T12:48:41.142Z,61.57
2023-10-10T12:49:40.770Z,61.96
2023-10-10T12:50:40.868Z,62.26
2023-10-10T12:51:40.890Z,61.33
2023-10-10T12:52:40.763Z,61.36